sensor_id;sensor_type;location;lat;lon;timestamp;P1;durP1;ratioP1;P2;durP2;ratioP2
22193;SDS011;11262;50.308;9.270;2022-08-04T00:01:14;7.57;;;3.33;;
22193;SDS011;11262;50.308;9.270;2022-08-04T00:04:00;4.27;;;3.37;;
22193;SDS011;11262;50.308;9.270;2022-08-04T00:09:07;4.47;;;3.50;;
22193;SDS011;11262;50.308;9.270;2022-08-04T00:11:37;8.60;;;3.70;;
22193;SDS011;11262;50.308;9.270;2022-08-04T00:14:13;5.03;;;3.37;;
22193;SDS011;11262;50.308;9.270;2022-08-04T00:16:40;7.13;;;3.60;;
22193;SDS011;11262;50.308;9.270;2022-08-04T00:19:11;9.60;;;3.87;;
22193;SDS011;11262;50.308;9.270;2022-08-04T00:21:45;4.73;;;3.63;;
22193;SDS011;11262;50.308;9.270;2022-08-04T00:24:17;7.17;;;4.00;;
22193;SDS011;11262;50.308;9.270;2022-08-04T00:26:45;3.90;;;3.50;;
22193;SDS011;11262;50.308;9.270;2022-08-04T00:29:11;7.33;;;3.83;;
22193;SDS011;11262;50.308;9.270;2022-08-04T00:31:38;4.27;;;3.47;;
22193;SDS011;11262;50.308;9.270;2022-08-04T00:34:08;6.33;;;3.90;;
22193;SDS011;11262;50.308;9.270;2022-08-04T00:36:36;6.17;;;3.40;;
22193;SDS011;11262;50.308;9.270;2022-08-04T00:39:03;6.77;;;3.93;;
22193;SDS011;11262;50.308;9.270;2022-08-04T00:41:37;5.37;;;3.90;;
22193;SDS011;11262;50.308;9.270;2022-08-04T00:44:28;6.03;;;3.60;;
22193;SDS011;11262;50.308;9.270;2022-08-04T00:52:21;6.10;;;4.10;;
22193;SDS011;11262;50.308;9.270;2022-08-04T01:01:11;5.50;;;3.70;;
22193;SDS011;11262;50.308;9.270;2022-08-04T01:09:16;5.57;;;3.93;;
22193;SDS011;11262;50.308;9.270;2022-08-04T01:22:37;5.17;;;3.73;;
22193;SDS011;11262;50.308;9.270;2022-08-04T01:34:55;4.87;;;3.87;;
22193;SDS011;11262;50.308;9.270;2022-08-04T01:40:15;5.80;;;4.00;;
22193;SDS011;11262;50.308;9.270;2022-08-04T01:42:42;6.23;;;4.27;;
22193;SDS011;11262;50.308;9.270;2022-08-04T01:45:11;8.73;;;3.90;;
22193;SDS011;11262;50.308;9.270;2022-08-04T01:47:39;5.73;;;4.00;;
22193;SDS011;11262;50.308;9.270;2022-08-04T01:50:12;4.73;;;3.93;;
22193;SDS011;11262;50.308;9.270;2022-08-04T01:52:39;4.30;;;3.70;;
22193;SDS011;11262;50.308;9.270;2022-08-04T01:55:07;5.07;;;3.70;;
22193;SDS011;11262;50.308;9.270;2022-08-04T01:57:36;4.83;;;3.97;;
22193;SDS011;11262;50.308;9.270;2022-08-04T02:00:06;7.40;;;4.77;;
22193;SDS011;11262;50.308;9.270;2022-08-04T02:02:34;6.80;;;3.73;;
22193;SDS011;11262;50.308;9.270;2022-08-04T02:04:59;5.00;;;3.73;;
22193;SDS011;11262;50.308;9.270;2022-08-04T02:07:38;4.23;;;3.50;;
22193;SDS011;11262;50.308;9.270;2022-08-04T02:16:03;6.30;;;3.90;;
22193;SDS011;11262;50.308;9.270;2022-08-04T02:21:28;4.30;;;3.90;;
22193;SDS011;11262;50.308;9.270;2022-08-04T02:24:06;6.20;;;3.90;;
22193;SDS011;11262;50.308;9.270;2022-08-04T02:26:33;5.13;;;3.80;;
22193;SDS011;11262;50.308;9.270;2022-08-04T02:29:49;4.30;;;3.60;;
22193;SDS011;11262;50.308;9.270;2022-08-04T02:32:11;6.93;;;3.83;;
22193;SDS011;11262;50.308;9.270;2022-08-04T02:37:29;6.93;;;4.00;;
22193;SDS011;11262;50.308;9.270;2022-08-04T02:39:56;7.13;;;3.80;;
22193;SDS011;11262;50.308;9.270;2022-08-04T02:42:23;5.17;;;4.00;;
22193;SDS011;11262;50.308;9.270;2022-08-04T02:44:51;6.97;;;4.10;;
22193;SDS011;11262;50.308;9.270;2022-08-04T02:47:20;5.70;;;3.70;;
22193;SDS011;11262;50.308;9.270;2022-08-04T02:49:49;5.60;;;3.97;;
22193;SDS011;11262;50.308;9.270;2022-08-04T02:52:15;5.20;;;3.73;;
22193;SDS011;11262;50.308;9.270;2022-08-04T02:54:43;8.70;;;4.00;;
22193;SDS011;11262;50.308;9.270;2022-08-04T02:57:11;7.13;;;4.33;;
22193;SDS011;11262;50.308;9.270;2022-08-04T03:00:20;5.97;;;4.37;;
22193;SDS011;11262;50.308;9.270;2022-08-04T03:05:12;8.27;;;4.40;;
22193;SDS011;11262;50.308;9.270;2022-08-04T03:07:56;6.77;;;4.10;;
22193;SDS011;11262;50.308;9.270;2022-08-04T03:30:56;7.37;;;4.20;;
22193;SDS011;11262;50.308;9.270;2022-08-04T03:39:06;6.13;;;4.10;;
22193;SDS011;11262;50.308;9.270;2022-08-04T03:41:47;7.27;;;4.07;;
22193;SDS011;11262;50.308;9.270;2022-08-04T03:55:39;5.87;;;4.00;;
22193;SDS011;11262;50.308;9.270;2022-08-04T04:04:15;5.33;;;3.90;;
22193;SDS011;11262;50.308;9.270;2022-08-04T04:16:19;6.93;;;4.33;;
22193;SDS011;11262;50.308;9.270;2022-08-04T04:24:05;7.07;;;4.67;;
22193;SDS011;11262;50.308;9.270;2022-08-04T04:27:27;6.87;;;4.30;;
22193;SDS011;11262;50.308;9.270;2022-08-04T04:38:39;8.07;;;4.40;;
22193;SDS011;11262;50.308;9.270;2022-08-04T04:49:50;7.63;;;4.20;;
22193;SDS011;11262;50.308;9.270;2022-08-04T04:52:37;11.63;;;4.00;;
22193;SDS011;11262;50.308;9.270;2022-08-04T04:57:49;6.53;;;4.07;;
22193;SDS011;11262;50.308;9.270;2022-08-04T05:00:16;6.43;;;3.73;;
22193;SDS011;11262;50.308;9.270;2022-08-04T05:16:26;4.90;;;4.07;;
22193;SDS011;11262;50.308;9.270;2022-08-04T05:21:47;4.20;;;3.60;;
22193;SDS011;11262;50.308;9.270;2022-08-04T05:24:33;6.33;;;3.73;;
22193;SDS011;11262;50.308;9.270;2022-08-04T05:27:07;8.67;;;3.93;;
22193;SDS011;11262;50.308;9.270;2022-08-04T05:29:41;6.00;;;4.03;;
22193;SDS011;11262;50.308;9.270;2022-08-04T05:32:14;4.60;;;3.80;;
22193;SDS011;11262;50.308;9.270;2022-08-04T05:34:43;6.13;;;3.90;;
22193;SDS011;11262;50.308;9.270;2022-08-04T05:37:16;5.37;;;3.90;;
22193;SDS011;11262;50.308;9.270;2022-08-04T05:39:47;4.70;;;3.50;;
22193;SDS011;11262;50.308;9.270;2022-08-04T05:42:17;9.07;;;4.03;;
22193;SDS011;11262;50.308;9.270;2022-08-04T05:44:44;4.67;;;3.70;;
22193;SDS011;11262;50.308;9.270;2022-08-04T05:47:10;6.10;;;3.70;;
22193;SDS011;11262;50.308;9.270;2022-08-04T05:49:37;6.57;;;3.40;;
22193;SDS011;11262;50.308;9.270;2022-08-04T05:52:05;6.30;;;4.07;;
22193;SDS011;11262;50.308;9.270;2022-08-04T05:54:32;7.50;;;3.90;;
22193;SDS011;11262;50.308;9.270;2022-08-04T05:56:59;5.50;;;3.53;;
22193;SDS011;11262;50.308;9.270;2022-08-04T05:59:28;4.43;;;3.47;;
22193;SDS011;11262;50.308;9.270;2022-08-04T06:01:56;8.80;;;3.60;;
22193;SDS011;11262;50.308;9.270;2022-08-04T06:04:25;7.47;;;3.73;;
22193;SDS011;11262;50.308;9.270;2022-08-04T06:06:56;4.50;;;3.60;;
22193;SDS011;11262;50.308;9.270;2022-08-04T06:09:21;5.83;;;3.67;;
22193;SDS011;11262;50.308;9.270;2022-08-04T06:11:48;7.97;;;3.97;;
22193;SDS011;11262;50.308;9.270;2022-08-04T06:14:16;7.17;;;3.90;;
22193;SDS011;11262;50.308;9.270;2022-08-04T06:16:44;4.73;;;3.60;;
22193;SDS011;11262;50.308;9.270;2022-08-04T06:19:11;6.53;;;3.57;;
22193;SDS011;11262;50.308;9.270;2022-08-04T06:21:40;11.80;;;3.70;;
22193;SDS011;11262;50.308;9.270;2022-08-04T06:24:10;7.67;;;3.33;;
22193;SDS011;11262;50.308;9.270;2022-08-04T06:26:39;4.93;;;3.50;;
22193;SDS011;11262;50.308;9.270;2022-08-04T06:29:05;5.20;;;3.50;;
22193;SDS011;11262;50.308;9.270;2022-08-04T06:31:41;6.00;;;3.63;;
22193;SDS011;11262;50.308;9.270;2022-08-04T06:34:11;6.50;;;3.47;;
22193;SDS011;11262;50.308;9.270;2022-08-04T06:36:39;6.80;;;3.40;;
22193;SDS011;11262;50.308;9.270;2022-08-04T06:39:06;6.53;;;3.60;;
22193;SDS011;11262;50.308;9.270;2022-08-04T06:41:34;7.10;;;3.70;;
22193;SDS011;11262;50.308;9.270;2022-08-04T06:44:01;8.07;;;3.50;;
22193;SDS011;11262;50.308;9.270;2022-08-04T06:46:31;7.13;;;3.70;;
22193;SDS011;11262;50.308;9.270;2022-08-04T06:48:58;4.50;;;3.67;;
22193;SDS011;11262;50.308;9.270;2022-08-04T06:51:25;5.60;;;3.60;;
22193;SDS011;11262;50.308;9.270;2022-08-04T06:53:54;5.17;;;3.50;;
22193;SDS011;11262;50.308;9.270;2022-08-04T06:56:20;6.67;;;3.87;;
22193;SDS011;11262;50.308;9.270;2022-08-04T06:58:47;7.20;;;3.83;;
22193;SDS011;11262;50.308;9.270;2022-08-04T07:01:17;10.43;;;3.67;;
22193;SDS011;11262;50.308;9.270;2022-08-04T07:03:44;8.43;;;3.50;;
22193;SDS011;11262;50.308;9.270;2022-08-04T07:06:11;5.17;;;3.20;;
22193;SDS011;11262;50.308;9.270;2022-08-04T07:08:37;6.37;;;3.47;;
22193;SDS011;11262;50.308;9.270;2022-08-04T07:11:04;3.90;;;3.33;;
22193;SDS011;11262;50.308;9.270;2022-08-04T07:13:30;8.50;;;3.60;;
22193;SDS011;11262;50.308;9.270;2022-08-04T07:15:57;11.57;;;3.77;;
22193;SDS011;11262;50.308;9.270;2022-08-04T07:18:24;6.23;;;3.33;;
22193;SDS011;11262;50.308;9.270;2022-08-04T07:20:49;10.93;;;3.63;;
22193;SDS011;11262;50.308;9.270;2022-08-04T07:23:16;9.07;;;3.47;;
22193;SDS011;11262;50.308;9.270;2022-08-04T07:25:54;4.70;;;3.30;;
22193;SDS011;11262;50.308;9.270;2022-08-04T07:28:22;10.57;;;3.53;;
22193;SDS011;11262;50.308;9.270;2022-08-04T07:30:51;4.03;;;3.30;;
22193;SDS011;11262;50.308;9.270;2022-08-04T07:33:18;4.73;;;3.43;;
22193;SDS011;11262;50.308;9.270;2022-08-04T07:35:45;5.20;;;3.50;;
22193;SDS011;11262;50.308;9.270;2022-08-04T07:38:13;4.60;;;3.53;;
22193;SDS011;11262;50.308;9.270;2022-08-04T07:40:39;4.97;;;3.33;;
22193;SDS011;11262;50.308;9.270;2022-08-04T07:43:05;6.37;;;3.50;;
22193;SDS011;11262;50.308;9.270;2022-08-04T07:45:31;6.27;;;3.50;;
22193;SDS011;11262;50.308;9.270;2022-08-04T07:47:56;5.03;;;3.50;;
22193;SDS011;11262;50.308;9.270;2022-08-04T07:50:23;7.53;;;3.30;;
22193;SDS011;11262;50.308;9.270;2022-08-04T07:52:50;5.63;;;3.50;;
22193;SDS011;11262;50.308;9.270;2022-08-04T07:55:16;6.20;;;3.43;;
22193;SDS011;11262;50.308;9.270;2022-08-04T07:57:42;6.45;;;3.65;;
22193;SDS011;11262;50.308;9.270;2022-08-04T08:00:09;8.53;;;3.77;;
22193;SDS011;11262;50.308;9.270;2022-08-04T08:02:36;6.83;;;3.13;;
22193;SDS011;11262;50.308;9.270;2022-08-04T08:05:02;7.03;;;3.70;;
22193;SDS011;11262;50.308;9.270;2022-08-04T08:07:29;6.93;;;3.60;;
22193;SDS011;11262;50.308;9.270;2022-08-04T08:09:55;5.33;;;3.30;;
22193;SDS011;11262;50.308;9.270;2022-08-04T08:12:20;3.80;;;3.23;;
22193;SDS011;11262;50.308;9.270;2022-08-04T08:14:46;4.40;;;3.60;;
22193;SDS011;11262;50.308;9.270;2022-08-04T08:17:12;5.67;;;3.07;;
22193;SDS011;11262;50.308;9.270;2022-08-04T08:19:38;6.40;;;3.17;;
22193;SDS011;11262;50.308;9.270;2022-08-04T08:22:04;6.53;;;3.17;;
22193;SDS011;11262;50.308;9.270;2022-08-04T08:24:32;6.93;;;3.20;;
22193;SDS011;11262;50.308;9.270;2022-08-04T08:27:00;6.23;;;3.33;;
22193;SDS011;11262;50.308;9.270;2022-08-04T08:29:28;4.37;;;3.20;;
22193;SDS011;11262;50.308;9.270;2022-08-04T08:31:54;7.50;;;3.10;;
22193;SDS011;11262;50.308;9.270;2022-08-04T08:34:20;6.97;;;3.17;;
22193;SDS011;11262;50.308;9.270;2022-08-04T08:36:54;6.27;;;3.33;;
22193;SDS011;11262;50.308;9.270;2022-08-04T08:39:37;4.07;;;3.20;;
22193;SDS011;11262;50.308;9.270;2022-08-04T08:42:30;5.67;;;3.07;;
22193;SDS011;11262;50.308;9.270;2022-08-04T08:45:29;5.10;;;2.90;;
22193;SDS011;11262;50.308;9.270;2022-08-04T08:50:46;3.83;;;2.80;;
22193;SDS011;11262;50.308;9.270;2022-08-04T08:56:10;4.43;;;2.87;;
22193;SDS011;11262;50.308;9.270;2022-08-04T09:01:17;3.70;;;3.10;;
22193;SDS011;11262;50.308;9.270;2022-08-04T09:12:39;3.57;;;2.90;;
22193;SDS011;11262;50.308;9.270;2022-08-04T09:15:17;2.87;;;2.57;;
22193;SDS011;11262;50.308;9.270;2022-08-04T09:18:10;8.87;;;3.20;;
22193;SDS011;11262;50.308;9.270;2022-08-04T09:29:19;4.73;;;2.70;;
22193;SDS011;11262;50.308;9.270;2022-08-04T09:32:11;3.95;;;2.30;;
22193;SDS011;11262;50.308;9.270;2022-08-04T09:49:17;4.63;;;2.40;;
22193;SDS011;11262;50.308;9.270;2022-08-04T10:02:30;4.93;;;2.45;;
22193;SDS011;11262;50.308;9.270;2022-08-04T10:05:00;4.63;;;2.55;;
22193;SDS011;11262;50.308;9.270;2022-08-04T10:07:29;3.22;;;2.20;;
22193;SDS011;11262;50.308;9.270;2022-08-04T10:26:02;4.65;;;2.28;;
22193;SDS011;11262;50.308;9.270;2022-08-04T10:28:30;4.13;;;2.35;;
22193;SDS011;11262;50.308;9.270;2022-08-04T10:31:02;4.82;;;2.38;;
22193;SDS011;11262;50.308;9.270;2022-08-04T10:33:54;4.07;;;2.30;;
22193;SDS011;11262;50.308;9.270;2022-08-04T10:36:43;4.43;;;2.20;;
22193;SDS011;11262;50.308;9.270;2022-08-04T10:39:15;3.45;;;2.30;;
22193;SDS011;11262;50.308;9.270;2022-08-04T10:48:06;5.97;;;2.30;;
22193;SDS011;11262;50.308;9.270;2022-08-04T10:50:39;3.08;;;2.20;;
22193;SDS011;11262;50.308;9.270;2022-08-04T10:53:17;3.58;;;2.50;;
22193;SDS011;11262;50.308;9.270;2022-08-04T10:55:46;2.97;;;2.30;;
22193;SDS011;11262;50.308;9.270;2022-08-04T10:58:19;4.25;;;2.25;;
22193;SDS011;11262;50.308;9.270;2022-08-04T11:00:49;6.78;;;2.30;;
22193;SDS011;11262;50.308;9.270;2022-08-04T11:03:46;5.22;;;2.35;;
22193;SDS011;11262;50.308;9.270;2022-08-04T11:06:15;5.63;;;2.35;;
22193;SDS011;11262;50.308;9.270;2022-08-04T11:08:47;3.45;;;2.40;;
22193;SDS011;11262;50.308;9.270;2022-08-04T11:14:02;2.58;;;2.38;;
22193;SDS011;11262;50.308;9.270;2022-08-04T11:16:51;2.60;;;2.40;;
22193;SDS011;11262;50.308;9.270;2022-08-04T11:19:34;5.63;;;2.72;;
22193;SDS011;11262;50.308;9.270;2022-08-04T11:22:26;4.07;;;2.65;;
22193;SDS011;11262;50.308;9.270;2022-08-04T11:30:29;4.90;;;2.80;;
22193;SDS011;11262;50.308;9.270;2022-08-04T11:33:21;4.40;;;2.60;;
22193;SDS011;11262;50.308;9.270;2022-08-04T11:39:26;7.75;;;2.90;;
22193;SDS011;11262;50.308;9.270;2022-08-04T11:42:21;3.88;;;2.65;;
22193;SDS011;11262;50.308;9.270;2022-08-04T11:47:29;3.13;;;2.58;;
22193;SDS011;11262;50.308;9.270;2022-08-04T11:50:10;2.70;;;2.42;;
22193;SDS011;11262;50.308;9.270;2022-08-04T11:52:44;3.30;;;2.78;;
22193;SDS011;11262;50.308;9.270;2022-08-04T11:55:12;3.53;;;2.40;;
22193;SDS011;11262;50.308;9.270;2022-08-04T11:57:40;3.35;;;2.60;;
22193;SDS011;11262;50.308;9.270;2022-08-04T12:00:09;4.00;;;2.35;;
22193;SDS011;11262;50.308;9.270;2022-08-04T12:05:23;4.68;;;2.58;;
22193;SDS011;11262;50.308;9.270;2022-08-04T12:10:59;3.85;;;2.70;;
22193;SDS011;11262;50.308;9.270;2022-08-04T12:13:42;4.78;;;2.65;;
22193;SDS011;11262;50.308;9.270;2022-08-04T12:16:16;2.38;;;2.17;;
22193;SDS011;11262;50.308;9.270;2022-08-04T12:19:03;4.60;;;2.40;;
22193;SDS011;11262;50.308;9.270;2022-08-04T12:21:41;3.25;;;2.50;;
22193;SDS011;11262;50.308;9.270;2022-08-04T12:24:26;4.03;;;2.80;;
22193;SDS011;11262;50.308;9.270;2022-08-04T12:27:10;6.60;;;3.63;;
22193;SDS011;11262;50.308;9.270;2022-08-04T12:29:42;6.38;;;3.75;;
22193;SDS011;11262;50.308;9.270;2022-08-04T12:34:47;3.70;;;2.83;;
22193;SDS011;11262;50.308;9.270;2022-08-04T12:37:28;4.13;;;3.15;;
22193;SDS011;11262;50.308;9.270;2022-08-04T12:40:34;5.55;;;3.17;;
22193;SDS011;11262;50.308;9.270;2022-08-04T12:43:10;4.85;;;2.40;;
22193;SDS011;11262;50.308;9.270;2022-08-04T12:45:52;4.45;;;2.60;;
22193;SDS011;11262;50.308;9.270;2022-08-04T12:48:21;4.13;;;3.05;;
22193;SDS011;11262;50.308;9.270;2022-08-04T12:50:49;3.72;;;2.92;;
22193;SDS011;11262;50.308;9.270;2022-08-04T12:53:18;5.35;;;2.95;;
22193;SDS011;11262;50.308;9.270;2022-08-04T12:55:47;4.55;;;2.70;;
22193;SDS011;11262;50.308;9.270;2022-08-04T12:58:16;5.20;;;2.97;;
22193;SDS011;11262;50.308;9.270;2022-08-04T13:00:51;3.55;;;2.70;;
22193;SDS011;11262;50.308;9.270;2022-08-04T13:03:20;2.80;;;2.50;;
22193;SDS011;11262;50.308;9.270;2022-08-04T13:05:54;4.82;;;2.70;;
22193;SDS011;11262;50.308;9.270;2022-08-04T13:08:21;2.90;;;2.60;;
22193;SDS011;11262;50.308;9.270;2022-08-04T13:10:48;3.97;;;2.60;;
22193;SDS011;11262;50.308;9.270;2022-08-04T13:13:20;3.55;;;2.50;;
22193;SDS011;11262;50.308;9.270;2022-08-04T13:18:22;4.45;;;2.67;;
22193;SDS011;11262;50.308;9.270;2022-08-04T13:20:50;6.00;;;2.50;;
22193;SDS011;11262;50.308;9.270;2022-08-04T13:23:16;3.42;;;2.28;;
22193;SDS011;11262;50.308;9.270;2022-08-04T13:25:44;4.88;;;2.60;;
22193;SDS011;11262;50.308;9.270;2022-08-04T13:28:16;10.57;;;2.75;;
22193;SDS011;11262;50.308;9.270;2022-08-04T13:30:45;5.47;;;2.25;;
22193;SDS011;11262;50.308;9.270;2022-08-04T13:33:17;9.85;;;2.58;;
22193;SDS011;11262;50.308;9.270;2022-08-04T13:35:44;7.45;;;2.63;;
22193;SDS011;11262;50.308;9.270;2022-08-04T13:38:11;5.30;;;2.35;;
22193;SDS011;11262;50.308;9.270;2022-08-04T13:40:39;5.68;;;2.40;;
22193;SDS011;11262;50.308;9.270;2022-08-04T13:43:06;7.38;;;2.50;;
22193;SDS011;11262;50.308;9.270;2022-08-04T13:45:34;8.65;;;2.35;;
22193;SDS011;11262;50.308;9.270;2022-08-04T13:48:02;3.83;;;2.50;;
22193;SDS011;11262;50.308;9.270;2022-08-04T13:50:29;2.50;;;2.30;;
22193;SDS011;11262;50.308;9.270;2022-08-04T13:52:58;3.88;;;2.35;;
22193;SDS011;11262;50.308;9.270;2022-08-04T13:55:26;2.58;;;2.38;;
22193;SDS011;11262;50.308;9.270;2022-08-04T13:58:18;2.78;;;2.13;;
22193;SDS011;11262;50.308;9.270;2022-08-04T14:00:50;3.65;;;2.30;;
22193;SDS011;11262;50.308;9.270;2022-08-04T14:03:29;19.15;;;2.40;;
22193;SDS011;11262;50.308;9.270;2022-08-04T14:06:13;5.50;;;2.33;;
22193;SDS011;11262;50.308;9.270;2022-08-04T14:11:18;4.28;;;2.00;;
22193;SDS011;11262;50.308;9.270;2022-08-04T14:13:46;5.55;;;2.05;;
22193;SDS011;11262;50.308;9.270;2022-08-04T14:16:16;27.33;;;2.90;;
22193;SDS011;11262;50.308;9.270;2022-08-04T14:18:44;30.77;;;2.80;;
22193;SDS011;11262;50.308;9.270;2022-08-04T14:21:11;8.30;;;2.20;;
22193;SDS011;11262;50.308;9.270;2022-08-04T14:23:39;2.63;;;2.20;;
22193;SDS011;11262;50.308;9.270;2022-08-04T14:26:27;7.70;;;2.40;;
22193;SDS011;11262;50.308;9.270;2022-08-04T14:29:07;3.97;;;2.10;;
22193;SDS011;11262;50.308;9.270;2022-08-04T14:31:34;6.88;;;2.20;;
22193;SDS011;11262;50.308;9.270;2022-08-04T14:34:00;9.85;;;2.22;;
22193;SDS011;11262;50.308;9.270;2022-08-04T14:36:25;7.43;;;2.10;;
22193;SDS011;11262;50.308;9.270;2022-08-04T14:38:55;4.13;;;2.20;;
22193;SDS011;11262;50.308;9.270;2022-08-04T14:41:26;3.92;;;2.50;;
22193;SDS011;11262;50.308;9.270;2022-08-04T14:43:58;5.85;;;2.17;;
22193;SDS011;11262;50.308;9.270;2022-08-04T14:46:27;3.08;;;2.22;;
22193;SDS011;11262;50.308;9.270;2022-08-04T14:48:59;6.70;;;2.22;;
22193;SDS011;11262;50.308;9.270;2022-08-04T14:51:26;4.82;;;2.25;;
22193;SDS011;11262;50.308;9.270;2022-08-04T14:53:52;4.05;;;2.30;;
22193;SDS011;11262;50.308;9.270;2022-08-04T14:56:18;5.15;;;2.60;;
22193;SDS011;11262;50.308;9.270;2022-08-04T14:58:44;4.07;;;2.00;;
22193;SDS011;11262;50.308;9.270;2022-08-04T15:01:10;10.13;;;2.20;;
22193;SDS011;11262;50.308;9.270;2022-08-04T15:03:40;3.53;;;2.42;;
22193;SDS011;11262;50.308;9.270;2022-08-04T15:06:07;4.65;;;2.35;;
22193;SDS011;11262;50.308;9.270;2022-08-04T15:08:34;5.03;;;2.00;;
22193;SDS011;11262;50.308;9.270;2022-08-04T15:10:59;4.43;;;1.88;;
22193;SDS011;11262;50.308;9.270;2022-08-04T15:13:26;1.83;;;1.73;;
22193;SDS011;11262;50.308;9.270;2022-08-04T15:15:53;7.47;;;1.98;;
22193;SDS011;11262;50.308;9.270;2022-08-04T15:18:19;5.63;;;1.88;;
22193;SDS011;11262;50.308;9.270;2022-08-04T15:20:45;4.20;;;1.98;;
22193;SDS011;11262;50.308;9.270;2022-08-04T15:23:11;3.25;;;2.28;;
22193;SDS011;11262;50.308;9.270;2022-08-04T15:25:38;10.13;;;2.03;;
22193;SDS011;11262;50.308;9.270;2022-08-04T15:28:10;2.78;;;1.90;;
22193;SDS011;11262;50.308;9.270;2022-08-04T15:30:40;3.00;;;1.90;;
22193;SDS011;11262;50.308;9.270;2022-08-04T15:33:07;3.28;;;1.77;;
22193;SDS011;11262;50.308;9.270;2022-08-04T15:35:33;7.40;;;2.10;;
22193;SDS011;11262;50.308;9.270;2022-08-04T15:38:01;4.25;;;1.80;;
22193;SDS011;11262;50.308;9.270;2022-08-04T15:45:58;2.83;;;2.10;;
22193;SDS011;11262;50.308;9.270;2022-08-04T15:48:26;1.90;;;1.80;;
22193;SDS011;11262;50.308;9.270;2022-08-04T15:53:27;4.47;;;2.13;;
22193;SDS011;11262;50.308;9.270;2022-08-04T15:56:01;6.15;;;1.90;;
22193;SDS011;11262;50.308;9.270;2022-08-04T15:58:26;6.35;;;2.08;;
22193;SDS011;11262;50.308;9.270;2022-08-04T16:01:13;10.57;;;2.10;;
22193;SDS011;11262;50.308;9.270;2022-08-04T16:03:40;7.13;;;2.15;;
22193;SDS011;11262;50.308;9.270;2022-08-04T16:11:35;3.30;;;2.08;;
22193;SDS011;11262;50.308;9.270;2022-08-04T16:22:00;2.63;;;2.00;;
22193;SDS011;11262;50.308;9.270;2022-08-04T16:24:37;3.75;;;2.03;;
22193;SDS011;11262;50.308;9.270;2022-08-04T16:27:04;5.28;;;1.90;;
22193;SDS011;11262;50.308;9.270;2022-08-04T16:32:18;4.15;;;2.00;;
22193;SDS011;11262;50.308;9.270;2022-08-04T16:35:01;4.32;;;2.20;;
22193;SDS011;11262;50.308;9.270;2022-08-04T16:37:35;6.45;;;2.20;;
22193;SDS011;11262;50.308;9.270;2022-08-04T16:42:56;6.72;;;2.20;;
22193;SDS011;11262;50.308;9.270;2022-08-04T16:45:38;7.82;;;2.17;;
22193;SDS011;11262;50.308;9.270;2022-08-04T16:48:05;2.75;;;2.10;;
22193;SDS011;11262;50.308;9.270;2022-08-04T16:50:32;3.53;;;2.00;;
22193;SDS011;11262;50.308;9.270;2022-08-04T16:52:59;10.00;;;2.22;;
22193;SDS011;11262;50.308;9.270;2022-08-04T16:55:33;8.00;;;2.40;;
22193;SDS011;11262;50.308;9.270;2022-08-04T16:57:59;2.72;;;2.20;;
22193;SDS011;11262;50.308;9.270;2022-08-04T17:00:29;5.97;;;2.35;;
22193;SDS011;11262;50.308;9.270;2022-08-04T17:02:56;3.42;;;2.05;;
22193;SDS011;11262;50.308;9.270;2022-08-04T17:05:25;4.70;;;2.38;;
22193;SDS011;11262;50.308;9.270;2022-08-04T17:07:51;7.43;;;2.10;;
22193;SDS011;11262;50.308;9.270;2022-08-04T17:10:18;4.60;;;2.20;;
22193;SDS011;11262;50.308;9.270;2022-08-04T17:12:54;3.05;;;2.40;;
22193;SDS011;11262;50.308;9.270;2022-08-04T17:15:22;4.20;;;2.17;;
22193;SDS011;11262;50.308;9.270;2022-08-04T17:17:49;2.45;;;2.22;;
22193;SDS011;11262;50.308;9.270;2022-08-04T17:20:15;2.65;;;2.22;;
22193;SDS011;11262;50.308;9.270;2022-08-04T17:22:42;4.13;;;2.17;;
22193;SDS011;11262;50.308;9.270;2022-08-04T17:25:07;12.57;;;2.42;;
22193;SDS011;11262;50.308;9.270;2022-08-04T17:27:34;13.15;;;2.92;;
22193;SDS011;11262;50.308;9.270;2022-08-04T17:30:00;8.70;;;2.30;;
22193;SDS011;11262;50.308;9.270;2022-08-04T17:32:26;13.20;;;2.50;;
22193;SDS011;11262;50.308;9.270;2022-08-04T17:34:52;20.95;;;2.58;;
22193;SDS011;11262;50.308;9.270;2022-08-04T17:37:21;9.00;;;2.63;;
22193;SDS011;11262;50.308;9.270;2022-08-04T17:39:51;18.15;;;2.65;;
22193;SDS011;11262;50.308;9.270;2022-08-04T17:42:32;13.55;;;2.83;;
22193;SDS011;11262;50.308;9.270;2022-08-04T17:45:05;17.65;;;2.80;;
22193;SDS011;11262;50.308;9.270;2022-08-04T17:47:33;16.30;;;2.58;;
22193;SDS011;11262;50.308;9.270;2022-08-04T17:50:05;7.13;;;2.28;;
22193;SDS011;11262;50.308;9.270;2022-08-04T17:52:34;7.72;;;2.40;;
22193;SDS011;11262;50.308;9.270;2022-08-04T17:55:00;5.60;;;2.10;;
22193;SDS011;11262;50.308;9.270;2022-08-04T17:57:26;9.13;;;2.63;;
22193;SDS011;11262;50.308;9.270;2022-08-04T18:02:23;5.18;;;2.17;;
22193;SDS011;11262;50.308;9.270;2022-08-04T18:04:50;10.80;;;2.40;;
22193;SDS011;11262;50.308;9.270;2022-08-04T18:07:17;9.18;;;2.38;;
22193;SDS011;11262;50.308;9.270;2022-08-04T18:12:31;12.45;;;2.47;;
22193;SDS011;11262;50.308;9.270;2022-08-04T18:15:07;20.98;;;2.83;;
22193;SDS011;11262;50.308;9.270;2022-08-04T18:17:46;29.85;;;4.20;;
22193;SDS011;11262;50.308;9.270;2022-08-04T18:20:16;26.17;;;3.47;;
22193;SDS011;11262;50.308;9.270;2022-08-04T18:22:44;10.45;;;2.53;;
22193;SDS011;11262;50.308;9.270;2022-08-04T18:25:12;7.60;;;2.78;;
22193;SDS011;11262;50.308;9.270;2022-08-04T18:28:12;9.40;;;3.08;;
22193;SDS011;11262;50.308;9.270;2022-08-04T18:30:33;2.92;;;2.38;;
22193;SDS011;11262;50.308;9.270;2022-08-04T18:33:00;5.78;;;2.80;;
22193;SDS011;11262;50.308;9.270;2022-08-04T18:35:26;7.22;;;2.63;;
22193;SDS011;11262;50.308;9.270;2022-08-04T18:37:53;5.40;;;2.45;;
22193;SDS011;11262;50.308;9.270;2022-08-04T18:40:19;11.55;;;2.70;;
22193;SDS011;11262;50.308;9.270;2022-08-04T18:42:45;9.00;;;2.63;;
22193;SDS011;11262;50.308;9.270;2022-08-04T18:45:11;6.03;;;2.47;;
22193;SDS011;11262;50.308;9.270;2022-08-04T18:47:37;4.10;;;2.53;;
22193;SDS011;11262;50.308;9.270;2022-08-04T18:50:04;5.40;;;2.60;;
22193;SDS011;11262;50.308;9.270;2022-08-04T18:52:30;10.75;;;2.50;;
22193;SDS011;11262;50.308;9.270;2022-08-04T18:54:56;5.07;;;2.47;;
22193;SDS011;11262;50.308;9.270;2022-08-04T18:57:23;7.20;;;2.42;;
22193;SDS011;11262;50.308;9.270;2022-08-04T18:59:49;4.83;;;2.50;;
22193;SDS011;11262;50.308;9.270;2022-08-04T19:02:15;5.30;;;2.20;;
22193;SDS011;11262;50.308;9.270;2022-08-04T19:04:41;5.23;;;2.50;;
22193;SDS011;11262;50.308;9.270;2022-08-04T19:07:08;3.77;;;2.30;;
22193;SDS011;11262;50.308;9.270;2022-08-04T19:09:37;2.43;;;2.20;;
22193;SDS011;11262;50.308;9.270;2022-08-04T19:12:03;6.17;;;2.50;;
22193;SDS011;11262;50.308;9.270;2022-08-04T19:14:29;5.37;;;2.50;;
22193;SDS011;11262;50.308;9.270;2022-08-04T19:16:55;10.23;;;2.43;;
22193;SDS011;11262;50.308;9.270;2022-08-04T19:19:20;8.03;;;2.60;;
22193;SDS011;11262;50.308;9.270;2022-08-04T19:21:46;6.00;;;2.57;;
22193;SDS011;11262;50.308;9.270;2022-08-04T19:24:12;7.87;;;2.70;;
22193;SDS011;11262;50.308;9.270;2022-08-04T19:26:37;3.90;;;2.40;;
22193;SDS011;11262;50.308;9.270;2022-08-04T19:29:03;4.47;;;2.80;;
22193;SDS011;11262;50.308;9.270;2022-08-04T19:31:29;6.07;;;3.10;;
22193;SDS011;11262;50.308;9.270;2022-08-04T19:33:54;8.60;;;3.23;;
22193;SDS011;11262;50.308;9.270;2022-08-04T19:36:20;10.23;;;3.10;;
22193;SDS011;11262;50.308;9.270;2022-08-04T19:38:47;4.23;;;2.80;;
22193;SDS011;11262;50.308;9.270;2022-08-04T19:41:12;8.93;;;3.00;;
22193;SDS011;11262;50.308;9.270;2022-08-04T19:43:38;9.50;;;3.00;;
22193;SDS011;11262;50.308;9.270;2022-08-04T19:46:05;10.60;;;3.00;;
22193;SDS011;11262;50.308;9.270;2022-08-04T19:48:31;12.17;;;3.47;;
22193;SDS011;11262;50.308;9.270;2022-08-04T19:50:56;6.93;;;3.40;;
22193;SDS011;11262;50.308;9.270;2022-08-04T19:53:22;7.17;;;3.50;;